Time,TemperatureF,DewpointF,PressureIn,WindDirection,WindDirectionDegrees,WindSpeedMPH,WindSpeedGustMPH,Humidity,HourlyPrecipIn,Conditions,Clouds,dailyrainin,SoftwareType,DateUTC
2013-08-11 00:00:00,65.3,65.0,30.11,East,96,0.0,0.0,99,0.00,,SKC,0.00,VWS V14.01,2013-08-11 04:00:00,
2013-08-11 00:30:00,64.9,64.6,30.12,East,96,0.0,0.0,99,0.00,,SKC,0.00,VWS V14.01,2013-08-11 04:30:00,
2013-08-11 01:00:00,64.9,64.6,30.11,East,96,0.0,0.0,99,0.00,,SKC,0.00,VWS V14.01,2013-08-11 05:00:00,
2013-08-11 02:00:00,64.1,63.8,30.10,East,96,0.0,0.0,99,0.00,,SKC,0.00,VWS V14.01,2013-08-11 06:00:00,
2013-08-11 02:30:00,63.5,63.2,30.10,East,96,0.0,0.0,99,0.00,,SKC,0.00,VWS V14.01,2013-08-11 06:30:00,
2013-08-11 03:00:00,63.0,62.7,30.11,East,96,0.0,0.0,99,0.00,,SKC,0.00,VWS V14.01,2013-08-11 07:00:00,
2013-08-11 03:30:00,62.7,62.4,30.12,East,96,0.0,0.0,99,0.00,,SKC,0.00,VWS V14.01,2013-08-11 07:30:00,
2013-08-11 04:00:00,61.7,61.4,30.11,East,96,0.0,0.0,99,0.00,,SKC,0.00,VWS V14.01,2013-08-11 08:00:00,
2013-08-11 04:30:00,60.8,60.5,30.12,East,96,0.0,0.0,99,0.00,,SKC,0.00,VWS V14.01,2013-08-11 08:30:00,
2013-08-11 05:00:00,60.4,60.1,30.12,East,96,0.0,0.0,99,0.00,,SKC,0.00,VWS V14.01,2013-08-11 09:00:00,
2013-08-11 06:00:00,60.3,60.3,30.13,East,96,0.0,1.0,100,0.00,,SKC,0.00,VWS V14.01,2013-08-11 10:00:00,
2013-08-11 06:30:00,61.0,61.0,30.14,East,96,0.0,0.0,100,0.00,,SKC,0.00,VWS V14.01,2013-08-11 10:30:00,
2013-08-11 07:00:00,60.7,60.7,30.15,East,96,0.0,0.0,100,0.00,,SKC,0.00,VWS V14.01,2013-08-11 11:00:00,
2013-08-11 07:30:00,61.0,61.0,30.15,East,96,0.0,0.0,100,0.00,,SKC,0.00,VWS V14.01,2013-08-11 11:30:00,
2013-08-11 08:30:00,67.0,65.8,30.15,East,96,0.0,0.0,96,0.00,,SKC,0.00,VWS V14.01,2013-08-11 12:30:00,
2013-08-11 09:00:00,71.9,69.4,30.16,East,96,0.0,1.0,92,0.00,,SKC,0.00,VWS V14.01,2013-08-11 13:00:00,
2013-08-11 09:30:00,75.0,71.2,30.15,East,98,0.0,1.0,88,0.00,,SKC,0.00,VWS V14.01,2013-08-11 13:30:00,
2013-08-11 10:00:00,73.9,69.8,30.15,South,174,0.0,1.0,87,0.00,,SKC,0.00,VWS V14.01,2013-08-11 14:00:00,
2013-08-11 10:30:00,75.3,70.5,30.15,East,96,0.0,1.0,85,0.00,,SKC,0.00,VWS V14.01,2013-08-11 14:30:00,
2013-08-11 11:00:00,75.0,70.9,30.15,East,95,0.0,3.0,87,0.00,,SKC,0.00,VWS V14.01,2013-08-11 15:00:00,
2013-08-11 11:30:00,78.5,71.1,30.14,East,88,1.0,2.0,78,0.00,,SKC,0.00,VWS V14.01,2013-08-11 15:30:00,
2013-08-11 12:30:00,81.5,72.4,30.12,West,266,0.0,3.0,74,0.00,,SKC,0.00,VWS V14.01,2013-08-11 16:30:00,
2013-08-11 13:00:00,81.9,71.2,30.12,East,98,0.0,3.0,70,0.00,,SKC,0.00,VWS V14.01,2013-08-11 17:00:00,
2013-08-11 13:30:00,82.7,71.5,30.11,ESE,120,0.0,3.0,69,0.00,,SKC,0.00,VWS V14.01,2013-08-11 17:30:00,
2013-08-11 14:00:00,84.0,70.5,30.11,West,264,0.0,3.0,64,0.00,,SKC,0.00,VWS V14.01,2013-08-11 18:00:00,
2013-08-11 14:30:00,81.8,69.8,30.09,ENE,58,0.0,2.0,67,0.00,,SKC,0.00,VWS V14.01,2013-08-11 18:30:00,
2013-08-11 15:30:00,81.5,70.8,30.08,East,86,0.0,4.0,70,0.00,,SKC,0.00,VWS V14.01,2013-08-11 19:30:00,
2013-08-11 16:00:00,80.4,71.0,30.08,South,187,0.0,2.0,73,0.00,,SKC,0.00,VWS V14.01,2013-08-11 20:00:00,
2013-08-11 16:30:00,79.1,70.5,30.08,South,187,0.0,1.0,75,0.00,,SKC,0.00,VWS V14.01,2013-08-11 20:30:00,
2013-08-11 17:00:00,79.1,69.3,30.08,ENE,59,0.0,4.0,72,0.00,,SKC,0.00,VWS V14.01,2013-08-11 21:00:00,
2013-08-11 17:30:00,79.2,69.4,30.07,SE,129,0.0,3.0,72,0.00,,SKC,0.00,VWS V14.01,2013-08-11 21:30:00,
2013-08-11 18:30:00,77.4,70.0,30.07,SE,129,0.0,1.0,78,0.00,,SKC,0.00,VWS V14.01,2013-08-11 22:30:00,
2013-08-11 19:30:00,72.9,69.5,30.08,SSE,155,0.0,0.0,89,0.00,,SKC,0.00,VWS V14.01,2013-08-11 23:30:00,
2013-08-11 20:30:00,70.4,68.9,30.08,SSE,155,0.0,0.0,95,0.00,,SKC,0.00,VWS V14.01,2013-08-12 00:30:00,
2013-08-11 21:00:00,68.8,67.9,30.09,SSE,155,0.0,0.0,97,0.00,,SKC,0.00,VWS V14.01,2013-08-12 01:00:00,
2013-08-11 21:30:00,67.6,66.7,30.09,SE,139,0.0,0.0,97,0.00,,SKC,0.00,VWS V14.01,2013-08-12 01:30:00,
2013-08-11 22:00:00,67.0,66.4,30.10,SE,139,0.0,0.0,98,0.00,,SKC,0.00,VWS V14.01,2013-08-12 02:00:00,
2013-08-11 22:30:00,66.6,66.0,30.11,SE,139,0.0,0.0,98,0.00,,SKC,0.00,VWS V14.01,2013-08-12 02:30:00,
2013-08-11 23:00:00,66.0,65.4,30.11,SE,139,0.0,0.0,98,0.00,,SKC,0.00,VWS V14.01,2013-08-12 03:00:00,
2013-08-11 23:30:00,65.4,64.8,30.11,SE,139,0.0,0.0,98,0.00,,SKC,0.00,VWS V14.01,2013-08-12 03:30:00,